Time;durP1;ratioP1;P1;durP2;ratioP2;P2;SDS_P1;SDS_P2;PMS_P1;PMS_P2;Temp;Humidity;BMP_temperature;BMP_pressure;BME280_temperature;BME280_humidity;BME280_pressure;Samples;Min_cycle;Max_cycle;Signal;HPM_P1;HPM_P2
2022/05/31 00:02:19;;;;;;;6.28;4.55;;;10.10;99.90;;;;;;5041999;28;20484;-80
2022/05/31 00:04:46;;;;;;;5.38;3.22;;;10.10;99.90;;;;;;5047587;28;20093;-80
2022/05/31 00:07:11;;;;;;;8.55;3.80;;;10.10;99.90;;;;;;5041093;28;20057;-80
2022/05/31 00:09:37;;;;;;;4.88;3.40;;;10.00;99.90;;;;;;5040362;28;20041;-80
2022/05/31 00:12:03;;;;;;;4.72;3.50;;;10.00;99.90;;;;;;5047180;28;20060;-81
2022/05/31 00:14:29;;;;;;;6.15;3.72;;;10.00;99.90;;;;;;5048390;28;20120;-81
2022/05/31 00:16:54;;;;;;;6.57;4.10;;;10.00;99.90;;;;;;5040999;28;20546;-80
2022/05/31 00:19:20;;;;;;;6.65;3.28;;;10.00;99.90;;;;;;5048977;28;20052;-80
2022/05/31 00:21:51;;;;;;;7.78;4.13;;;10.00;99.90;;;;;;5042988;28;20037;-79
2022/05/31 00:24:22;;;;;;;4.20;3.10;;;10.00;99.90;;;;;;5041989;28;20068;-80
2022/05/31 00:26:48;;;;;;;5.28;3.58;;;10.00;99.90;;;;;;5076957;28;20264;-80
2022/05/31 00:29:14;;;;;;;5.13;3.60;;;10.00;99.90;;;;;;5048268;28;20493;-80
2022/05/31 00:31:43;;;;;;;5.65;3.75;;;10.00;99.90;;;;;;5045919;28;20133;-81
2022/05/31 00:34:16;;;;;;;6.88;3.50;;;10.10;99.90;;;;;;5063645;28;20769;-80
2022/05/31 00:36:44;;;;;;;5.28;3.95;;;10.00;99.90;;;;;;5044668;28;20053;-80
2022/05/31 00:39:13;;;;;;;;;;;10.00;99.90;;;;;;5050409;28;20053;-81
2022/05/31 00:42:14;;;;;;;7.05;3.80;;;10.00;99.90;;;;;;5048320;28;19920;-81
2022/05/31 00:44:40;;;;;;;5.57;3.88;;;10.00;99.90;;;;;;5043523;28;20037;-81
2022/05/31 00:47:31;;;;;;;5.63;3.85;;;10.00;99.90;;;;;;5047909;28;20126;-80
2022/05/31 00:50:08;;;;;;;5.97;4.22;;;10.00;99.90;;;;;;5048458;28;20071;-80
2022/05/31 00:52:39;;;;;;;4.50;3.85;;;9.90;99.90;;;;;;5043848;28;20040;-81
2022/05/31 00:55:19;;;;;;;6.50;4.28;;;10.00;99.90;;;;;;5046052;28;20045;-81
2022/05/31 00:58:15;;;;;;;6.32;4.10;;;10.00;99.90;;;;;;5047718;28;20443;-80
2022/05/31 01:00:41;;;;;;;5.30;4.30;;;10.10;99.90;;;;;;5048698;28;20111;-81
2022/05/31 01:03:10;;;;;;;6.25;4.60;;;10.00;99.90;;;;;;5047894;28;20477;-81
2022/05/31 01:05:39;;;;;;;5.53;4.20;;;10.00;99.90;;;;;;5042171;28;20140;-80
2022/05/31 01:08:05;;;;;;;8.95;4.75;;;10.10;99.90;;;;;;5037170;28;20203;-80
2022/05/31 01:10:31;;;;;;;5.53;4.22;;;10.10;99.90;;;;;;5049056;28;20049;-81
2022/05/31 01:13:02;;;;;;;7.40;4.57;;;10.10;99.90;;;;;;5042702;28;20060;-81
2022/05/31 01:15:27;;;;;;;7.95;4.22;;;10.10;99.90;;;;;;5053484;28;20077;-80
2022/05/31 01:17:54;;;;;;;7.00;4.70;;;10.10;99.90;;;;;;5055842;28;20404;-80
2022/05/31 01:20:21;;;;;;;6.43;4.88;;;10.10;99.90;;;;;;5047708;28;20147;-80
2022/05/31 01:22:53;;;;;;;5.40;4.15;;;10.10;99.90;;;;;;5044911;28;20041;-81
2022/05/31 01:25:23;;;;;;;7.47;4.85;;;10.10;99.90;;;;;;5048397;28;20546;-80
2022/05/31 01:27:54;;;;;;;6.93;5.47;;;10.40;99.90;;;;;;5074851;28;20135;-81
2022/05/31 01:30:21;;;;;;;;;;;10.10;99.90;;;;;;5043513;28;20110;-80
2022/05/31 01:32:58;;;;;;;6.38;4.80;;;10.10;99.90;;;;;;5048169;28;20050;-81
2022/05/31 01:35:30;;;;;;;5.75;4.32;;;10.10;99.90;;;;;;5046762;28;20450;-80
2022/05/31 01:37:56;;;;;;;8.55;5.00;;;10.10;99.90;;;;;;5043695;28;20037;-80
2022/05/31 01:40:29;;;;;;;6.07;4.68;;;10.10;99.90;;;;;;5046834;28;20052;-80
2022/05/31 01:42:56;;;;;;;7.80;5.13;;;10.10;99.90;;;;;;5078573;28;20045;-80
2022/05/31 01:45:31;;;;;;;8.43;5.25;;;10.10;99.90;;;;;;5044153;28;20057;-80
2022/05/31 01:48:00;;;;;;;7.35;4.75;;;10.20;99.90;;;;;;5043557;28;20105;-80
2022/05/31 01:50:26;;;;;;;8.23;4.80;;;10.10;99.90;;;;;;5046448;28;20182;-80
2022/05/31 01:52:54;;;;;;;6.70;4.63;;;10.20;99.90;;;;;;5044948;28;20037;-80
2022/05/31 01:55:21;;;;;;;5.00;4.30;;;10.20;99.90;;;;;;5040407;28;20054;-80
2022/05/31 01:57:53;;;;;;;5.57;4.57;;;10.20;99.90;;;;;;5063971;28;20072;-80
2022/05/31 02:00:19;;;;;;;6.15;4.22;;;10.20;99.90;;;;;;5053856;28;20143;-80
2022/05/31 02:02:48;;;;;;;6.78;5.15;;;10.20;99.90;;;;;;5041628;28;20060;-80
2022/05/31 02:05:15;;;;;;;7.53;5.03;;;10.20;99.90;;;;;;5039677;28;20449;-80
2022/05/31 02:07:41;;;;;;;6.70;4.43;;;10.20;99.90;;;;;;5044804;28;20148;-81
2022/05/31 02:10:08;;;;;;;7.28;4.28;;;10.40;99.90;;;;;;5043865;28;20037;-81
2022/05/31 02:12:33;;;;;;;6.63;4.72;;;10.20;99.90;;;;;;5043460;28;20566;-81
2022/05/31 02:14:59;;;;;;;7.72;4.13;;;10.20;99.90;;;;;;5042293;28;20067;-80
2022/05/31 02:17:25;;;;;;;7.20;4.32;;;10.20;99.90;;;;;;5040995;28;20080;-81
2022/05/31 02:19:51;;;;;;;7.30;4.85;;;10.20;99.90;;;;;;5046707;28;20118;-80
2022/05/31 02:22:19;;;;;;;6.05;4.75;;;10.20;99.90;;;;;;5045314;28;20512;-81
2022/05/31 02:24:45;;;;;;;7.82;4.90;;;10.20;99.90;;;;;;5041234;28;20041;-81
2022/05/31 02:27:11;;;;;;;7.00;4.70;;;10.20;99.90;;;;;;5043613;28;20041;-81
2022/05/31 02:29:38;;;;;;;7.45;4.75;;;10.20;99.90;;;;;;5043346;28;20127;-80
2022/05/31 02:32:07;;;;;;;5.75;4.43;;;10.30;99.90;;;;;;5043738;28;20131;-81
2022/05/31 02:34:38;;;;;;;8.35;4.88;;;10.30;99.90;;;;;;5042213;28;20110;-80
2022/05/31 02:37:04;;;;;;;6.60;4.35;;;10.30;99.90;;;;;;5039697;28;20512;-80
2022/05/31 02:39:30;;;;;;;7.53;4.88;;;10.30;99.90;;;;;;5045445;28;20044;-80
2022/05/31 02:42:00;;;;;;;7.22;4.45;;;10.30;99.90;;;;;;5061903;28;20037;-81
2022/05/31 02:44:26;;;;;;;5.65;4.22;;;10.30;99.90;;;;;;5048311;28;20056;-81
2022/05/31 02:46:54;;;;;;;6.50;4.53;;;10.30;99.90;;;;;;5045669;28;20456;-80
2022/05/31 02:49:21;;;;;;;5.65;4.25;;;10.30;99.90;;;;;;5045854;28;20052;-80
2022/05/31 02:51:50;;;;;;;8.55;5.38;;;10.30;99.90;;;;;;5043995;28;20131;-81
2022/05/31 02:54:19;;;;;;;7.50;4.25;;;10.40;99.90;;;;;;5046334;28;20558;-81
2022/05/31 02:56:48;;;;;;;6.18;4.32;;;10.30;99.90;;;;;;5042357;28;20041;-80
2022/05/31 02:59:13;;;;;;;7.15;4.55;;;10.30;99.90;;;;;;5044511;28;20037;-80
2022/05/31 03:01:41;;;;;;;8.10;4.78;;;10.30;99.90;;;;;;5039024;28;20064;-80
2022/05/31 03:04:09;;;;;;;9.07;4.85;;;10.30;99.90;;;;;;5044262;28;20606;-80
2022/05/31 03:06:35;;;;;;;7.40;4.68;;;10.30;99.90;;;;;;5042380;28;20040;-80
2022/05/31 03:09:00;;;;;;;8.38;4.95;;;10.40;99.90;;;;;;5046097;28;20132;-80
2022/05/31 03:11:32;;;;;;;7.28;5.20;;;10.30;99.90;;;;;;5040756;28;20103;-79
2022/05/31 03:14:10;;;;;;;7.70;4.43;;;10.30;99.90;;;;;;5038820;28;20041;-80
2022/05/31 03:16:40;;;;;;;8.85;5.20;;;10.40;99.90;;;;;;5035897;28;20049;-80
2022/05/31 03:19:09;;;;;;;7.47;5.05;;;10.30;99.90;;;;;;5047435;28;20041;-80
2022/05/31 03:21:47;;;;;;;19.08;5.35;;;10.40;99.90;;;;;;5043149;28;20533;-80
2022/05/31 03:24:24;;;;;;;7.18;4.60;;;10.50;99.90;;;;;;5064036;28;20049;-80
2022/05/31 03:26:53;;;;;;;7.60;4.55;;;10.40;99.90;;;;;;5042973;28;20041;-81
2022/05/31 03:29:19;;;;;;;6.97;4.78;;;10.40;99.90;;;;;;5044878;28;20116;-80
2022/05/31 03:31:45;;;;;;;9.15;5.10;;;10.40;99.90;;;;;;5045253;28;20469;-80
2022/05/31 03:34:11;;;;;;;7.25;4.80;;;10.30;99.90;;;;;;5046001;28;20117;-80
2022/05/31 03:36:37;;;;;;;6.40;4.80;;;10.30;99.90;;;;;;5042609;28;20131;-80
2022/05/31 03:39:03;;;;;;;8.65;5.10;;;10.30;99.90;;;;;;5045020;28;20121;-80
2022/05/31 03:41:33;;;;;;;7.03;4.53;;;10.30;99.90;;;;;;5044781;28;20148;-80
2022/05/31 03:43:58;;;;;;;6.10;4.40;;;10.30;99.90;;;;;;5046825;28;20045;-80
2022/05/31 03:46:25;;;;;;;6.03;3.95;;;10.30;99.90;;;;;;5041382;28;20350;-80
2022/05/31 03:48:51;;;;;;;7.32;4.80;;;10.30;99.90;;;;;;5041713;28;20049;-80
2022/05/31 03:51:16;;;;;;;5.55;4.43;;;10.30;99.90;;;;;;5037826;28;20052;-80
2022/05/31 03:53:42;;;;;;;8.65;5.22;;;10.30;99.90;;;;;;5038438;28;20049;-80
2022/05/31 03:56:10;;;;;;;8.40;4.63;;;10.30;99.90;;;;;;5042313;28;20045;-80
2022/05/31 03:58:36;;;;;;;8.80;5.07;;;10.30;99.90;;;;;;5043490;28;20037;-80
2022/05/31 04:01:05;;;;;;;7.35;4.55;;;10.30;99.90;;;;;;5041591;28;20045;-80
2022/05/31 04:03:31;;;;;;;10.48;4.20;;;10.40;99.90;;;;;;5042497;28;20049;-80
2022/05/31 04:05:57;;;;;;;6.68;4.40;;;10.40;99.90;;;;;;5056954;28;20033;-80
2022/05/31 04:08:26;;;;;;;9.43;4.53;;;10.40;99.90;;;;;;5047907;28;20052;-79
2022/05/31 04:10:54;;;;;;;11.02;4.47;;;10.40;99.90;;;;;;5045874;28;20040;-80
2022/05/31 04:13:20;;;;;;;9.27;4.43;;;10.40;99.90;;;;;;5044821;28;20110;-80
2022/05/31 04:15:45;;;;;;;9.05;4.90;;;10.40;99.90;;;;;;5045337;28;20045;-80
2022/05/31 04:18:12;;;;;;;9.73;4.93;;;10.40;99.90;;;;;;5045303;28;20487;-80
2022/05/31 04:20:37;;;;;;;7.45;4.68;;;10.40;99.90;;;;;;5043991;28;20131;-83
2022/05/31 04:25:49;;;;;;;6.70;4.63;;;10.40;99.90;;;;;;5069092;28;20042;-81
2022/05/31 04:28:17;;;;;;;7.65;4.97;;;10.50;99.90;;;;;;5042366;28;20484;-80
2022/05/31 04:30:44;;;;;;;6.82;4.25;;;10.50;99.90;;;;;;5046006;28;20047;-80
2022/05/31 04:33:10;;;;;;;7.10;4.72;;;10.50;99.90;;;;;;5049693;28;20049;-80
2022/05/31 04:35:36;;;;;;;5.93;4.53;;;10.50;99.90;;;;;;5049189;28;20048;-80
2022/05/31 04:38:02;;;;;;;5.53;4.05;;;10.50;99.90;;;;;;5043329;28;20076;-80
2022/05/31 04:40:27;;;;;;;5.47;4.10;;;10.60;99.90;;;;;;5048265;28;20432;-80
2022/05/31 04:42:53;;;;;;;6.60;4.60;;;10.50;99.90;;;;;;5049442;28;20127;-80
2022/05/31 04:45:19;;;;;;;5.68;4.50;;;10.60;99.90;;;;;;5048478;28;20132;-80
2022/05/31 04:47:45;;;;;;;7.25;4.38;;;10.50;99.90;;;;;;5051347;28;20039;-80
2022/05/31 04:50:10;;;;;;;5.97;4.85;;;10.60;99.90;;;;;;5056363;28;20231;-80
2022/05/31 04:52:36;;;;;;;7.55;5.10;;;10.60;99.90;;;;;;5046568;28;20056;-81
2022/05/31 04:55:02;;;;;;;7.95;5.07;;;10.60;99.90;;;;;;5044238;28;20232;-80
2022/05/31 04:57:28;;;;;;;8.52;4.55;;;10.60;99.90;;;;;;5044377;28;20135;-80
2022/05/31 04:59:54;;;;;;;13.38;5.03;;;10.60;99.90;;;;;;5044353;28;20148;-81
2022/05/31 05:02:19;;;;;;;6.60;4.63;;;10.60;99.90;;;;;;5045241;28;20059;-80
2022/05/31 05:04:45;;;;;;;7.63;5.25;;;10.60;99.90;;;;;;5047313;28;20047;-80
2022/05/31 05:07:10;;;;;;;9.38;4.57;;;10.70;99.90;;;;;;5046895;28;20049;-80
2022/05/31 05:09:36;;;;;;;8.05;5.28;;;10.70;99.90;;;;;;5048202;28;20045;-81
2022/05/31 05:12:02;;;;;;;10.25;4.95;;;10.70;99.90;;;;;;5048530;28;20049;-80
2022/05/31 05:14:29;;;;;;;8.30;5.15;;;10.70;99.90;;;;;;5048019;28;20075;-80
2022/05/31 05:16:55;;;;;;;7.85;4.93;;;10.70;99.90;;;;;;5040576;28;20117;-80
2022/05/31 05:19:21;;;;;;;6.85;5.07;;;10.70;99.90;;;;;;5044587;28;20659;-80
2022/05/31 05:21:47;;;;;;;8.15;5.15;;;10.80;99.90;;;;;;5047288;28;20492;-80
2022/05/31 05:24:12;;;;;;;6.45;4.43;;;10.80;99.90;;;;;;5048200;28;20052;-80
2022/05/31 05:26:38;;;;;;;6.72;4.45;;;10.80;99.90;;;;;;5041303;28;20405;-80
2022/05/31 05:31:52;;;;;;;8.43;4.80;;;10.90;99.90;;;;;;5089527;28;20132;-81
2022/05/31 05:34:18;;;;;;;6.82;4.70;;;10.90;99.90;;;;;;5049691;28;20056;-82
2022/05/31 05:36:45;;;;;;;6.97;5.03;;;10.90;99.90;;;;;;5044559;28;20587;-79
2022/05/31 05:39:11;;;;;;;8.05;5.15;;;10.90;99.90;;;;;;5045912;28;20061;-80
2022/05/31 05:41:40;;;;;;;7.72;5.72;;;11.00;99.90;;;;;;5040954;28;20033;-80
2022/05/31 05:44:06;;;;;;;7.53;5.57;;;11.00;99.90;;;;;;5048352;28;20045;-81
2022/05/31 05:46:32;;;;;;;10.75;5.47;;;11.10;99.90;;;;;;5044513;28;20036;-80
2022/05/31 05:49:04;;;;;;;7.35;5.18;;;11.10;99.90;;;;;;5039986;28;20136;-80
2022/05/31 05:51:31;;;;;;;6.90;5.25;;;11.10;99.90;;;;;;5043241;28;20757;-79
2022/05/31 05:53:57;;;;;;;8.90;5.97;;;11.20;99.90;;;;;;5047286;28;20061;-79
2022/05/31 05:56:24;;;;;;;10.10;5.82;;;11.20;99.90;;;;;;5046904;28;20111;-79
2022/05/31 05:58:53;;;;;;;8.68;5.93;;;11.20;99.90;;;;;;5040273;28;20045;-79
2022/05/31 06:01:29;;;;;;;10.90;5.45;;;11.30;99.90;;;;;;5041871;28;20049;-80
2022/05/31 06:04:20;;;;;;;7.78;6.22;;;11.30;99.90;;;;;;5039494;28;20045;-82
2022/05/31 06:06:50;;;;;;;7.50;5.95;;;11.30;99.90;;;;;;5037275;28;20137;-81
2022/05/31 06:09:20;;;;;;;7.72;5.65;;;11.40;99.90;;;;;;5043040;28;20040;-81
2022/05/31 06:11:54;;;;;;;9.67;6.17;;;11.40;99.90;;;;;;5041657;28;20041;-80
2022/05/31 06:14:24;;;;;;;8.48;5.68;;;11.40;99.90;;;;;;5039467;28;20049;-80
2022/05/31 06:16:54;;;;;;;8.18;6.40;;;11.40;99.90;;;;;;5041611;28;20036;-80
2022/05/31 06:19:25;;;;;;;9.88;5.75;;;11.50;99.90;;;;;;5045501;28;20053;-80
2022/05/31 06:21:51;;;;;;;9.15;5.90;;;11.50;99.90;;;;;;5046555;28;20040;-80
2022/05/31 06:24:20;;;;;;;8.10;5.88;;;11.50;99.90;;;;;;5048345;28;20112;-79
2022/05/31 06:26:45;;;;;;;7.75;5.68;;;11.60;99.90;;;;;;5049228;28;20400;-80
2022/05/31 06:29:11;;;;;;;13.52;6.75;;;11.60;99.90;;;;;;5043753;28;20037;-80
2022/05/31 06:31:38;;;;;;;9.50;6.80;;;11.60;99.90;;;;;;5043273;28;20037;-79
2022/05/31 06:34:04;;;;;;;9.50;6.63;;;11.70;99.90;;;;;;5045240;28;20134;-81
2022/05/31 06:36:30;;;;;;;9.40;7.18;;;11.70;99.90;;;;;;5036665;28;20135;-80
2022/05/31 06:38:56;;;;;;;8.45;6.28;;;11.80;99.90;;;;;;5047433;28;20167;-79
2022/05/31 06:41:22;;;;;;;9.65;6.70;;;11.90;99.90;;;;;;5039411;28;20135;-80
2022/05/31 06:43:47;;;;;;;10.90;7.00;;;11.90;99.90;;;;;;5042563;28;20045;-80
2022/05/31 06:46:13;;;;;;;11.70;6.28;;;11.90;99.90;;;;;;5040822;28;20470;-81
2022/05/31 06:48:39;;;;;;;10.57;7.20;;;11.90;99.90;;;;;;5039822;28;20159;-80
2022/05/31 06:51:11;;;;;;;9.02;6.85;;;12.00;99.90;;;;;;5044395;28;20330;-80
2022/05/31 06:58:57;;;;;;;8.30;6.47;;;12.10;99.90;;;;;;5045250;28;20045;-80
2022/05/31 07:01:30;;;;;;;10.93;6.88;;;12.20;99.90;;;;;;5041715;28;20040;-81
2022/05/31 07:03:59;;;;;;;10.20;6.35;;;12.30;99.90;;;;;;5041090;28;20156;-80
2022/05/31 07:06:25;;;;;;;7.93;6.22;;;12.30;99.90;;;;;;5039508;28;20171;-80
2022/05/31 07:08:51;;;;;;;10.27;6.45;;;12.30;99.90;;;;;;5043244;28;20412;-81
2022/05/31 07:11:17;;;;;;;9.10;5.68;;;12.40;99.90;;;;;;5038625;28;20054;-80
2022/05/31 07:13:42;;;;;;;7.80;6.40;;;12.50;99.90;;;;;;5044171;28;20049;-80
2022/05/31 07:16:08;;;;;;;7.82;5.90;;;12.60;99.90;;;;;;5039927;28;20201;-80
2022/05/31 07:18:34;;;;;;;9.20;5.65;;;12.60;99.90;;;;;;5045567;28;20053;-80
2022/05/31 07:21:01;;;;;;;8.75;5.97;;;12.70;99.90;;;;;;5048864;28;20478;-80
2022/05/31 07:23:26;;;;;;;7.07;5.63;;;12.80;99.90;;;;;;5045170;28;20076;-80
2022/05/31 07:25:52;;;;;;;6.35;5.35;;;12.90;99.90;;;;;;5042028;28;20068;-80
2022/05/31 07:28:18;;;;;;;6.88;5.18;;;12.90;99.90;;;;;;5046265;28;20131;-80
2022/05/31 07:30:44;;;;;;;9.55;4.88;;;13.00;99.90;;;;;;5047306;28;20500;-80
2022/05/31 07:33:12;;;;;;;7.05;4.63;;;13.10;99.90;;;;;;5037490;28;20082;-79
2022/05/31 07:35:42;;;;;;;8.23;5.30;;;13.10;99.90;;;;;;5044241;28;20049;-78
2022/05/31 07:38:08;;;;;;;8.50;4.72;;;13.20;99.90;;;;;;5041130;28;20040;-79
2022/05/31 07:40:34;;;;;;;9.63;4.57;;;13.30;99.90;;;;;;5044707;28;20128;-80
2022/05/31 07:43:01;;;;;;;6.85;4.90;;;13.40;99.90;;;;;;5039836;28;20418;-80
2022/05/31 07:45:28;;;;;;;6.70;4.28;;;13.50;99.90;;;;;;5038178;28;20699;-80
2022/05/31 07:47:53;;;;;;;6.22;5.13;;;13.50;99.90;;;;;;5037212;28;20117;-80
2022/05/31 07:50:19;;;;;;;5.72;4.22;;;13.60;99.90;;;;;;5043310;28;20217;-79
2022/05/31 07:52:45;;;;;;;5.38;4.20;;;13.60;99.90;;;;;;5042155;28;20529;-80
2022/05/31 07:55:14;;;;;;;6.93;4.25;;;13.70;99.90;;;;;;5041791;28;20049;-79
2022/05/31 08:00:24;;;;;;;7.72;4.32;;;13.80;99.90;;;;;;5047477;28;20155;-80
2022/05/31 08:02:53;;;;;;;6.07;4.40;;;13.80;99.90;;;;;;5080255;28;20132;-79
2022/05/31 08:05:19;;;;;;;7.15;4.15;;;13.80;99.90;;;;;;5047040;28;20053;-78
2022/05/31 08:07:57;;;;;;;5.78;4.05;;;14.10;99.90;;;;;;5046617;28;20076;-79
2022/05/31 08:10:22;;;;;;;7.95;4.95;;;14.00;99.90;;;;;;5070533;28;20076;-80
2022/05/31 08:12:48;;;;;;;6.35;4.05;;;14.00;99.90;;;;;;5047719;28;20364;-80
2022/05/31 08:15:14;;;;;;;5.88;3.90;;;14.00;99.90;;;;;;5042815;28;20078;-80
2022/05/31 08:17:40;;;;;;;9.05;4.38;;;14.10;99.90;;;;;;5047050;28;20118;-79
2022/05/31 08:20:07;;;;;;;10.23;3.67;;;14.10;99.90;;;;;;5051228;28;20473;-81
2022/05/31 08:22:35;;;;;;;5.40;3.53;;;14.20;99.90;;;;;;5047069;28;20056;-81
2022/05/31 08:25:02;;;;;;;9.02;4.78;;;14.20;99.90;;;;;;5046094;28;20353;-80
2022/05/31 08:27:28;;;;;;;6.93;3.83;;;14.20;99.90;;;;;;5045998;28;20087;-79
2022/05/31 08:29:53;;;;;;;5.63;3.33;;;14.30;99.90;;;;;;5047321;28;20455;-80
2022/05/31 08:32:19;;;;;;;6.30;4.10;;;14.30;99.90;;;;;;5051324;28;20136;-80
2022/05/31 08:34:47;;;;;;;7.32;3.67;;;14.40;99.90;;;;;;5050139;28;20491;-80
2022/05/31 08:37:13;;;;;;;10.20;5.95;;;14.40;99.90;;;;;;5047618;28;20049;-80
2022/05/31 08:39:39;;;;;;;7.80;3.70;;;14.50;99.90;;;;;;5039015;28;20114;-79
2022/05/31 08:42:08;;;;;;;6.00;3.50;;;14.50;99.90;;;;;;5047011;28;20045;-80
2022/05/31 08:45:00;;;;;;;12.13;3.92;;;14.60;99.90;;;;;;5049276;28;20041;-80
2022/05/31 08:47:38;;;;;;;10.95;4.10;;;14.60;99.90;;;;;;5044861;28;20044;-79
2022/05/31 08:53:26;;;;;;;9.10;3.55;;;14.90;99.90;;;;;;5040519;28;20045;-80
2022/05/31 08:59:14;;;;;;;8.15;3.45;;;15.10;99.90;;;;;;5050055;28;20104;-80
2022/05/31 09:01:52;;;;;;;7.07;3.40;;;15.20;99.90;;;;;;5031378;28;20053;-79
2022/05/31 09:04:28;;;;;;;9.88;4.03;;;15.40;99.90;;;;;;5063763;28;20089;-79
2022/05/31 09:07:31;;;;;;;5.60;3.10;;;15.50;99.90;;;;;;5039816;28;20045;-81
2022/05/31 09:10:07;;;;;;;4.80;3.08;;;15.50;99.90;;;;;;5031893;28;20048;-81
2022/05/31 09:12:35;;;;;;;6.63;3.70;;;15.50;99.90;;;;;;5035257;28;20136;-81
2022/05/31 09:15:29;;;;;;;6.60;3.28;;;15.60;99.90;;;;;;5045247;28;20045;-80
2022/05/31 09:18:07;;;;;;;6.70;3.00;;;15.60;99.90;;;;;;5048943;28;20464;-80
2022/05/31 09:20:41;;;;;;;7.13;3.35;;;15.60;99.90;;;;;;5047568;28;20056;-79
2022/05/31 09:23:08;;;;;;;7.25;3.03;;;15.60;99.90;;;;;;5046556;28;20064;-80
2022/05/31 09:25:39;;;;;;;6.30;3.10;;;15.60;99.90;;;;;;5047517;28;20036;-80
2022/05/31 09:28:39;;;;;;;4.90;2.67;;;15.70;99.90;;;;;;5071693;28;20099;-80
2022/05/31 09:31:20;;;;;;;6.20;3.15;;;15.70;99.90;;;;;;5037204;28;20065;-81
2022/05/31 09:34:16;;;;;;;6.20;3.10;;;15.80;99.90;;;;;;5042629;28;20029;-79
2022/05/31 09:36:53;;;;;;;5.50;3.00;;;15.90;99.90;;;;;;5023579;28;20386;-79
2022/05/31 09:39:49;;;;;;;6.30;2.95;;;15.90;99.90;;;;;;5036130;28;20056;-80
2022/05/31 09:42:27;;;;;;;6.45;3.30;;;15.90;99.90;;;;;;5043680;28;20120;-79
2022/05/31 09:45:03;;;;;;;7.68;3.00;;;15.90;99.90;;;;;;5041953;28;20052;-79
2022/05/31 09:47:32;;;;;;;6.18;3.35;;;15.90;99.90;;;;;;5044765;28;20056;-79
2022/05/31 09:49:58;;;;;;;7.10;3.35;;;16.00;99.90;;;;;;5046022;28;20152;-79
2022/05/31 09:52:47;;;;;;;7.53;3.15;;;16.00;99.90;;;;;;5041694;28;20049;-79
2022/05/31 09:58:38;;;;;;;8.02;3.30;;;16.20;99.90;;;;;;5010284;28;20079;-80
2022/05/31 10:01:29;;;;;;;9.90;2.92;;;16.20;99.90;;;;;;5032191;28;20168;-80
2022/05/31 10:04:05;;;;;;;11.90;3.35;;;16.30;99.90;;;;;;5042839;28;20122;-79
2022/05/31 10:06:31;;;;;;;6.55;3.53;;;16.40;99.90;;;;;;5040189;28;20396;-78
2022/05/31 10:09:14;;;;;;;5.50;2.90;;;16.40;99.90;;;;;;5045945;28;20037;-80
2022/05/31 10:11:48;;;;;;;8.38;3.08;;;16.50;99.90;;;;;;5046947;28;20045;-80
2022/05/31 10:14:32;;;;;;;6.40;3.30;;;16.50;99.90;;;;;;5046001;28;20315;-80
2022/05/31 10:17:13;;;;;;;7.78;2.97;;;16.50;99.90;;;;;;5034433;28;20496;-79
2022/05/31 10:19:39;;;;;;;7.03;3.75;;;16.40;99.90;;;;;;5032462;28;20048;-79
2022/05/31 10:22:28;;;;;;;5.80;3.05;;;16.40;99.90;;;;;;5045325;28;20045;-79
2022/05/31 10:24:54;;;;;;;5.40;3.03;;;16.40;99.90;;;;;;5051830;28;20063;-79
2022/05/31 10:27:23;;;;;;;6.00;3.28;;;16.30;99.90;;;;;;5048147;28;20083;-81
2022/05/31 10:30:01;;;;;;;6.55;3.28;;;16.30;99.90;;;;;;5047791;28;20079;-80
2022/05/31 10:32:34;;;;;;;6.53;2.80;;;16.30;99.90;;;;;;5048140;28;20159;-80
2022/05/31 10:35:12;;;;;;;5.68;2.78;;;16.30;99.90;;;;;;5041048;28;20071;-80
2022/05/31 10:37:58;;;;;;;4.22;3.13;;;16.30;99.90;;;;;;5037537;28;20045;-79
2022/05/31 10:40:52;;;;;;;6.07;2.88;;;16.20;99.90;;;;;;5047285;28;20140;-80
2022/05/31 10:43:39;;;;;;;7.03;2.80;;;16.10;99.90;;;;;;5037973;28;20064;-80
2022/05/31 10:46:13;;;;;;;4.97;3.00;;;16.00;99.90;;;;;;5043978;28;20124;-80
2022/05/31 10:48:47;;;;;;;7.68;3.50;;;15.90;99.90;;;;;;5044373;28;20049;-80
2022/05/31 10:51:18;;;;;;;7.50;2.80;;;15.90;99.90;;;;;;5039558;28;20056;-80
2022/05/31 10:53:51;;;;;;;4.55;2.72;;;15.80;99.90;;;;;;5048168;28;20404;-80
2022/05/31 10:56:31;;;;;;;5.38;3.00;;;15.80;99.90;;;;;;5046486;28;20513;-79
2022/05/31 10:59:03;;;;;;;9.48;3.20;;;15.80;99.90;;;;;;5046233;28;20147;-79
2022/05/31 11:02:06;;;;;;;7.70;2.95;;;15.80;99.90;;;;;;5037001;28;20053;-80
2022/05/31 11:05:01;;;;;;;9.27;2.55;;;15.90;99.90;;;;;;5043513;28;20459;-80
2022/05/31 11:07:38;;;;;;;5.50;2.70;;;15.90;99.90;;;;;;5047244;28;20049;-79
2022/05/31 11:13:29;;;;;;;5.32;2.67;;;16.00;99.90;;;;;;5040623;28;20049;-80
2022/05/31 11:15:58;;;;;;;7.88;2.53;;;16.00;99.90;;;;;;5049448;28;20123;-80
2022/05/31 11:18:44;;;;;;;4.85;2.35;;;16.10;99.90;;;;;;5053297;28;20045;-80
2022/05/31 11:21:28;;;;;;;4.68;2.67;;;16.20;99.90;;;;;;5047631;28;20107;-80
2022/05/31 11:24:23;;;;;;;5.35;2.60;;;16.30;99.90;;;;;;5044149;28;20099;-79
2022/05/31 11:26:58;;;;;;;5.47;2.25;;;16.40;99.90;;;;;;5037342;28;20053;-79
2022/05/31 11:29:45;;;;;;;4.32;2.42;;;16.50;99.90;;;;;;5042118;28;20060;-80
2022/05/31 11:32:26;;;;;;;5.70;2.67;;;16.60;99.90;;;;;;5045653;28;20044;-80
2022/05/31 11:34:52;;;;;;;6.63;2.60;;;16.70;99.50;;;;;;5046241;28;20047;-80
2022/05/31 11:37:49;;;;;;;5.28;2.50;;;16.70;99.20;;;;;;5046057;28;20123;-80
2022/05/31 11:40:43;;;;;;;4.15;2.30;;;16.70;98.10;;;;;;5011571;28;20412;-78
2022/05/31 11:43:27;;;;;;;4.65;2.10;;;16.80;97.80;;;;;;5048832;28;20038;-80
2022/05/31 11:46:18;;;;;;;5.40;2.55;;;16.90;97.80;;;;;;5051393;28;20067;-79
2022/05/31 11:48:53;;;;;;;6.65;2.42;;;17.00;97.30;;;;;;5051501;28;20133;-78
2022/05/31 11:51:32;;;;;;;5.40;2.83;;;17.10;97.00;;;;;;5039000;28;20049;-78
2022/05/31 11:54:07;;;;;;;5.78;2.60;;;17.30;94.80;;;;;;5046699;28;20061;-80
2022/05/31 11:56:39;;;;;;;5.95;2.42;;;17.40;95.20;;;;;;5044397;28;20049;-81
2022/05/31 11:59:22;;;;;;;6.03;2.47;;;17.50;94.20;;;;;;5045072;28;20524;-79
2022/05/31 12:02:26;;;;;;;6.20;2.47;;;17.50;94.80;;;;;;5052699;28;20064;-80
2022/05/31 12:04:59;;;;;;;4.22;2.00;;;17.60;94.50;;;;;;5022417;28;20084;-80
2022/05/31 12:07:43;;;;;;;5.75;1.88;;;17.70;93.00;;;;;;5076439;28;20524;-81
2022/05/31 12:10:36;;;;;;;4.47;2.35;;;17.70;92.60;;;;;;5050443;28;20103;-79
2022/05/31 12:13:07;;;;;;;7.25;2.30;;;17.70;93.50;;;;;;5041400;28;20103;-78
2022/05/31 12:15:35;;;;;;;4.50;2.08;;;17.80;93.40;;;;;;5043198;28;20045;-80
2022/05/31 12:18:16;;;;;;;4.05;2.60;;;17.90;93.60;;;;;;5043107;28;20107;-80
2022/05/31 12:20:44;;;;;;;6.13;2.80;;;18.00;91.90;;;;;;5049170;28;20048;-79
2022/05/31 12:23:22;;;;;;;5.80;2.80;;;18.00;90.60;;;;;;5044914;28;20477;-80
2022/05/31 12:25:52;;;;;;;6.07;2.70;;;18.00;90.90;;;;;;5049244;28;20322;-80
2022/05/31 12:28:31;;;;;;;6.63;2.88;;;18.00;90.60;;;;;;5050010;28;20083;-77
2022/05/31 12:31:14;;;;;;;5.22;2.78;;;18.00;90.70;;;;;;5050938;28;20099;-79
2022/05/31 12:33:44;;;;;;;5.38;2.40;;;18.00;90.30;;;;;;5046318;28;20063;-78
2022/05/31 12:36:18;;;;;;;4.30;2.30;;;17.90;91.50;;;;;;5056551;28;20134;-79
2022/05/31 12:39:08;;;;;;;4.35;2.72;;;17.80;92.00;;;;;;5045339;28;20064;-79
2022/05/31 12:41:36;;;;;;;4.32;2.70;;;17.80;92.20;;;;;;5038522;28;20080;-77
2022/05/31 12:44:09;;;;;;;6.75;2.95;;;17.70;91.70;;;;;;5049282;28;20144;-77
2022/05/31 12:46:45;;;;;;;4.97;2.75;;;17.60;91.60;;;;;;5048476;28;20139;-78
2022/05/31 12:49:19;;;;;;;8.15;3.42;;;17.50;91.30;;;;;;5047134;28;20485;-77
2022/05/31 12:54:53;;;;;;;5.72;2.80;;;17.20;92.40;;;;;;5043455;28;20800;-77
2022/05/31 13:00:34;;;;;;;5.90;2.42;;;17.00;92.70;;;;;;5078137;28;20049;-77
2022/05/31 13:03:05;;;;;;;11.38;3.30;;;16.90;93.30;;;;;;5057201;28;20115;-79
2022/05/31 13:05:38;;;;;;;6.05;2.63;;;16.80;93.70;;;;;;5049620;28;20075;-78
2022/05/31 13:08:20;;;;;;;9.43;3.40;;;16.80;93.80;;;;;;5033870;28;20053;-77
2022/05/31 13:22:06;;;;;;;3.28;1.90;;;16.50;92.90;;;;;;5043834;28;20084;-78
2022/05/31 13:24:37;;;;;;;5.90;2.65;;;16.50;93.00;;;;;;5045203;28;20033;-78
2022/05/31 13:27:07;;;;;;;8.82;2.60;;;16.40;92.90;;;;;;5046040;28;20044;-78
2022/05/31 13:29:33;;;;;;;6.97;2.13;;;16.40;92.80;;;;;;5044919;28;20041;-78
2022/05/31 13:32:03;;;;;;;6.03;2.15;;;16.40;92.90;;;;;;5048774;28;20453;-78
2022/05/31 13:34:49;;;;;;;5.93;2.65;;;16.40;93.80;;;;;;5050711;28;20396;-78
2022/05/31 13:37:20;;;;;;;8.68;2.28;;;16.40;94.60;;;;;;5045170;28;20134;-78
2022/05/31 13:39:47;;;;;;;3.50;2.13;;;16.40;94.90;;;;;;5045523;28;20044;-80
2022/05/31 13:42:31;;;;;;;5.72;2.47;;;16.30;94.70;;;;;;5046332;28;20407;-78
2022/05/31 13:45:05;;;;;;;4.45;1.98;;;16.30;94.90;;;;;;5042489;28;20052;-79
2022/05/31 13:47:31;;;;;;;8.00;2.20;;;16.30;95.10;;;;;;5047897;28;20057;-79
2022/05/31 13:50:05;;;;;;;3.83;2.20;;;16.30;95.30;;;;;;5044153;28;20447;-78
2022/05/31 13:52:31;;;;;;;4.65;2.10;;;16.30;95.60;;;;;;5044474;28;20439;-80